Terminal Aerodrome Forecast
Issued by NWS Glasgow, MT

Home | Current Version | Previous Version | Text Only | Print | Product List | Glossary On
Versions: 1 2 3 4 5 6 7 8 9 10 11 12 13 14
000
FTUS45 KGGW 210520
TAFGGW
TAF
KGGW 210520Z 2106/2206 28017KT P6SM VCSH BKN070
     FM210700 28014G23KT P6SM BKN060
     FM211700 29017G27KT P6SM SCT060
     FM220400 22006KT P6SM FEW210=

USA.gov is the U.S. government's official web portal to all federal, state and local government web resources and services.